sensor_id;sensor_type;location;lat;lon;timestamp;P1;durP1;ratioP1;P2;durP2;ratioP2
12780;SDS011;6454;43.304;24.344;2022-11-20T00:01:07;9.27;;;8.02;;
12780;SDS011;6454;43.304;24.344;2022-11-20T00:03:35;9.73;;;7.78;;
12780;SDS011;6454;43.304;24.344;2022-11-20T00:06:02;9.65;;;8.30;;
12780;SDS011;6454;43.304;24.344;2022-11-20T00:08:31;11.52;;;8.38;;
12780;SDS011;6454;43.304;24.344;2022-11-20T00:11:03;11.25;;;8.38;;
12780;SDS011;6454;43.304;24.344;2022-11-20T00:13:30;12.05;;;8.68;;
12780;SDS011;6454;43.304;24.344;2022-11-20T00:15:57;9.40;;;8.15;;
12780;SDS011;6454;43.304;24.344;2022-11-20T00:18:24;9.70;;;8.45;;
12780;SDS011;6454;43.304;24.344;2022-11-20T00:20:51;9.25;;;8.15;;
12780;SDS011;6454;43.304;24.344;2022-11-20T00:23:18;12.05;;;9.80;;
12780;SDS011;6454;43.304;24.344;2022-11-20T00:25:45;13.40;;;9.70;;
12780;SDS011;6454;43.304;24.344;2022-11-20T00:28:13;11.60;;;8.85;;
12780;SDS011;6454;43.304;24.344;2022-11-20T00:30:40;9.98;;;8.25;;
12780;SDS011;6454;43.304;24.344;2022-11-20T00:33:07;10.05;;;8.43;;
12780;SDS011;6454;43.304;24.344;2022-11-20T00:35:33;10.05;;;8.38;;
12780;SDS011;6454;43.304;24.344;2022-11-20T00:38:00;9.77;;;8.18;;
12780;SDS011;6454;43.304;24.344;2022-11-20T00:40:27;10.60;;;8.88;;
12780;SDS011;6454;43.304;24.344;2022-11-20T00:42:54;11.13;;;9.05;;
12780;SDS011;6454;43.304;24.344;2022-11-20T00:45:22;11.85;;;9.02;;
12780;SDS011;6454;43.304;24.344;2022-11-20T00:47:49;10.52;;;8.80;;
12780;SDS011;6454;43.304;24.344;2022-11-20T00:50:15;12.38;;;8.95;;
12780;SDS011;6454;43.304;24.344;2022-11-20T00:52:42;10.70;;;8.18;;
12780;SDS011;6454;43.304;24.344;2022-11-20T00:55:09;10.10;;;8.32;;
12780;SDS011;6454;43.304;24.344;2022-11-20T00:57:36;9.82;;;7.88;;
12780;SDS011;6454;43.304;24.344;2022-11-20T01:00:03;10.77;;;8.80;;
12780;SDS011;6454;43.304;24.344;2022-11-20T01:02:32;11.20;;;8.43;;
12780;SDS011;6454;43.304;24.344;2022-11-20T01:04:58;9.13;;;7.97;;
12780;SDS011;6454;43.304;24.344;2022-11-20T01:07:25;9.05;;;7.65;;
12780;SDS011;6454;43.304;24.344;2022-11-20T01:09:52;11.98;;;8.32;;
12780;SDS011;6454;43.304;24.344;2022-11-20T01:12:19;10.20;;;7.57;;
12780;SDS011;6454;43.304;24.344;2022-11-20T01:14:46;10.10;;;8.63;;
12780;SDS011;6454;43.304;24.344;2022-11-20T01:17:13;10.65;;;8.88;;
12780;SDS011;6454;43.304;24.344;2022-11-20T01:19:41;10.07;;;8.60;;
12780;SDS011;6454;43.304;24.344;2022-11-20T01:22:09;9.95;;;8.75;;
12780;SDS011;6454;43.304;24.344;2022-11-20T01:24:35;16.35;;;9.05;;
12780;SDS011;6454;43.304;24.344;2022-11-20T01:27:02;13.30;;;10.98;;
12780;SDS011;6454;43.304;24.344;2022-11-20T01:29:29;16.60;;;11.52;;
12780;SDS011;6454;43.304;24.344;2022-11-20T01:31:56;14.38;;;11.48;;
12780;SDS011;6454;43.304;24.344;2022-11-20T01:34:23;11.95;;;10.55;;
12780;SDS011;6454;43.304;24.344;2022-11-20T01:36:52;12.63;;;10.68;;
12780;SDS011;6454;43.304;24.344;2022-11-20T01:39:20;12.40;;;10.07;;
12780;SDS011;6454;43.304;24.344;2022-11-20T01:41:48;13.63;;;10.85;;
12780;SDS011;6454;43.304;24.344;2022-11-20T01:44:45;12.77;;;10.73;;
12780;SDS011;6454;43.304;24.344;2022-11-20T01:47:16;15.63;;;11.35;;
12780;SDS011;6454;43.304;24.344;2022-11-20T01:49:46;15.98;;;11.77;;
12780;SDS011;6454;43.304;24.344;2022-11-20T01:52:18;12.13;;;10.27;;
12780;SDS011;6454;43.304;24.344;2022-11-20T01:54:50;12.43;;;10.32;;
12780;SDS011;6454;43.304;24.344;2022-11-20T01:57:20;14.88;;;11.20;;
12780;SDS011;6454;43.304;24.344;2022-11-20T01:59:52;16.52;;;10.82;;
12780;SDS011;6454;43.304;24.344;2022-11-20T02:02:25;13.45;;;10.77;;
12780;SDS011;6454;43.304;24.344;2022-11-20T02:04:53;14.32;;;11.57;;
12780;SDS011;6454;43.304;24.344;2022-11-20T02:07:24;12.98;;;9.82;;
12780;SDS011;6454;43.304;24.344;2022-11-20T02:09:51;13.70;;;11.35;;
12780;SDS011;6454;43.304;24.344;2022-11-20T02:12:18;14.80;;;11.50;;
12780;SDS011;6454;43.304;24.344;2022-11-20T02:15:02;14.07;;;11.38;;
12780;SDS011;6454;43.304;24.344;2022-11-20T02:17:30;12.90;;;11.00;;
12780;SDS011;6454;43.304;24.344;2022-11-20T02:19:57;13.00;;;11.18;;
12780;SDS011;6454;43.304;24.344;2022-11-20T02:22:28;15.13;;;11.93;;
12780;SDS011;6454;43.304;24.344;2022-11-20T02:25:03;15.93;;;11.80;;
12780;SDS011;6454;43.304;24.344;2022-11-20T02:27:33;14.75;;;11.13;;
12780;SDS011;6454;43.304;24.344;2022-11-20T02:30:01;13.48;;;10.32;;
12780;SDS011;6454;43.304;24.344;2022-11-20T02:32:33;14.10;;;10.63;;
12780;SDS011;6454;43.304;24.344;2022-11-20T02:35:06;14.05;;;10.90;;
12780;SDS011;6454;43.304;24.344;2022-11-20T02:37:35;13.43;;;10.57;;
12780;SDS011;6454;43.304;24.344;2022-11-20T02:40:08;13.48;;;11.20;;
12780;SDS011;6454;43.304;24.344;2022-11-20T02:42:36;13.65;;;10.68;;
12780;SDS011;6454;43.304;24.344;2022-11-20T02:45:03;11.88;;;9.85;;
12780;SDS011;6454;43.304;24.344;2022-11-20T02:47:30;14.60;;;11.30;;
12780;SDS011;6454;43.304;24.344;2022-11-20T02:49:58;16.35;;;12.20;;
12780;SDS011;6454;43.304;24.344;2022-11-20T02:52:25;16.23;;;12.52;;
12780;SDS011;6454;43.304;24.344;2022-11-20T02:54:52;20.08;;;14.32;;
12780;SDS011;6454;43.304;24.344;2022-11-20T02:57:20;23.95;;;16.95;;
12780;SDS011;6454;43.304;24.344;2022-11-20T02:59:47;21.52;;;15.32;;
12780;SDS011;6454;43.304;24.344;2022-11-20T03:02:14;20.10;;;14.73;;
12780;SDS011;6454;43.304;24.344;2022-11-20T03:04:41;21.42;;;16.10;;
12780;SDS011;6454;43.304;24.344;2022-11-20T03:07:08;22.05;;;15.40;;
12780;SDS011;6454;43.304;24.344;2022-11-20T03:09:35;20.50;;;16.48;;
12780;SDS011;6454;43.304;24.344;2022-11-20T03:12:02;22.13;;;15.82;;
12780;SDS011;6454;43.304;24.344;2022-11-20T03:14:31;21.55;;;16.15;;
12780;SDS011;6454;43.304;24.344;2022-11-20T03:16:57;20.73;;;16.27;;
12780;SDS011;6454;43.304;24.344;2022-11-20T03:19:24;27.42;;;18.10;;
12780;SDS011;6454;43.304;24.344;2022-11-20T03:21:51;30.23;;;16.90;;
12780;SDS011;6454;43.304;24.344;2022-11-20T03:24:18;24.27;;;17.13;;
12780;SDS011;6454;43.304;24.344;2022-11-20T03:26:45;21.27;;;16.02;;
12780;SDS011;6454;43.304;24.344;2022-11-20T03:29:11;23.20;;;17.42;;
12780;SDS011;6454;43.304;24.344;2022-11-20T03:31:40;25.02;;;16.88;;
12780;SDS011;6454;43.304;24.344;2022-11-20T03:34:08;25.00;;;17.00;;
12780;SDS011;6454;43.304;24.344;2022-11-20T03:36:37;27.08;;;17.00;;
12780;SDS011;6454;43.304;24.344;2022-11-20T03:39:04;29.73;;;17.67;;
12780;SDS011;6454;43.304;24.344;2022-11-20T03:41:31;31.42;;;18.45;;
12780;SDS011;6454;43.304;24.344;2022-11-20T03:44:03;27.73;;;17.85;;
12780;SDS011;6454;43.304;24.344;2022-11-20T03:46:32;33.38;;;19.40;;
12780;SDS011;6454;43.304;24.344;2022-11-20T03:49:00;29.20;;;18.30;;
12780;SDS011;6454;43.304;24.344;2022-11-20T03:51:27;28.92;;;19.08;;
12780;SDS011;6454;43.304;24.344;2022-11-20T03:53:57;27.05;;;18.95;;
12780;SDS011;6454;43.304;24.344;2022-11-20T03:56:25;37.08;;;20.23;;
12780;SDS011;6454;43.304;24.344;2022-11-20T03:58:54;32.28;;;18.92;;
12780;SDS011;6454;43.304;24.344;2022-11-20T04:01:22;32.13;;;19.58;;
12780;SDS011;6454;43.304;24.344;2022-11-20T04:03:51;31.65;;;19.52;;
12780;SDS011;6454;43.304;24.344;2022-11-20T04:06:21;36.45;;;19.90;;
12780;SDS011;6454;43.304;24.344;2022-11-20T04:08:49;33.22;;;20.25;;
12780;SDS011;6454;43.304;24.344;2022-11-20T04:11:16;29.02;;;20.02;;
12780;SDS011;6454;43.304;24.344;2022-11-20T04:13:45;30.02;;;19.60;;
12780;SDS011;6454;43.304;24.344;2022-11-20T04:16:14;35.60;;;21.25;;
12780;SDS011;6454;43.304;24.344;2022-11-20T04:18:42;31.63;;;21.27;;
12780;SDS011;6454;43.304;24.344;2022-11-20T04:21:10;32.30;;;20.35;;
12780;SDS011;6454;43.304;24.344;2022-11-20T04:23:39;31.15;;;20.65;;
12780;SDS011;6454;43.304;24.344;2022-11-20T04:26:06;32.03;;;20.98;;
12780;SDS011;6454;43.304;24.344;2022-11-20T04:28:34;38.90;;;21.75;;
12780;SDS011;6454;43.304;24.344;2022-11-20T04:31:01;35.05;;;21.60;;
12780;SDS011;6454;43.304;24.344;2022-11-20T04:33:30;37.58;;;21.38;;
12780;SDS011;6454;43.304;24.344;2022-11-20T04:35:59;36.95;;;23.35;;
12780;SDS011;6454;43.304;24.344;2022-11-20T04:38:28;35.03;;;21.88;;
12780;SDS011;6454;43.304;24.344;2022-11-20T04:40:59;43.53;;;23.38;;
12780;SDS011;6454;43.304;24.344;2022-11-20T04:43:28;39.05;;;21.90;;
12780;SDS011;6454;43.304;24.344;2022-11-20T04:45:56;36.97;;;23.92;;
12780;SDS011;6454;43.304;24.344;2022-11-20T04:48:24;42.88;;;23.70;;
12780;SDS011;6454;43.304;24.344;2022-11-20T04:50:52;45.80;;;27.63;;
12780;SDS011;6454;43.304;24.344;2022-11-20T04:53:19;54.58;;;28.85;;
12780;SDS011;6454;43.304;24.344;2022-11-20T04:55:46;45.25;;;26.95;;
12780;SDS011;6454;43.304;24.344;2022-11-20T04:58:14;42.92;;;24.45;;
12780;SDS011;6454;43.304;24.344;2022-11-20T05:00:42;37.70;;;24.50;;
12780;SDS011;6454;43.304;24.344;2022-11-20T05:03:09;37.80;;;24.83;;
12780;SDS011;6454;43.304;24.344;2022-11-20T05:05:35;39.75;;;24.35;;
12780;SDS011;6454;43.304;24.344;2022-11-20T05:08:02;47.47;;;27.58;;
12780;SDS011;6454;43.304;24.344;2022-11-20T05:10:29;42.97;;;27.50;;
12780;SDS011;6454;43.304;24.344;2022-11-20T05:12:56;47.15;;;28.83;;
12780;SDS011;6454;43.304;24.344;2022-11-20T05:15:24;41.78;;;28.45;;
12780;SDS011;6454;43.304;24.344;2022-11-20T05:17:51;46.67;;;28.38;;
12780;SDS011;6454;43.304;24.344;2022-11-20T05:20:19;50.55;;;32.38;;
12780;SDS011;6454;43.304;24.344;2022-11-20T05:22:46;53.63;;;31.08;;
12780;SDS011;6454;43.304;24.344;2022-11-20T05:25:13;55.03;;;31.70;;
12780;SDS011;6454;43.304;24.344;2022-11-20T05:27:40;52.70;;;28.20;;
12780;SDS011;6454;43.304;24.344;2022-11-20T05:30:08;49.47;;;28.20;;
12780;SDS011;6454;43.304;24.344;2022-11-20T05:32:37;46.22;;;28.45;;
12780;SDS011;6454;43.304;24.344;2022-11-20T05:35:04;46.63;;;29.75;;
12780;SDS011;6454;43.304;24.344;2022-11-20T05:37:31;50.92;;;27.52;;
12780;SDS011;6454;43.304;24.344;2022-11-20T05:39:58;54.58;;;29.45;;
12780;SDS011;6454;43.304;24.344;2022-11-20T05:42:25;52.75;;;27.63;;
12780;SDS011;6454;43.304;24.344;2022-11-20T05:44:58;46.45;;;28.02;;
12780;SDS011;6454;43.304;24.344;2022-11-20T05:47:25;45.42;;;27.92;;
12780;SDS011;6454;43.304;24.344;2022-11-20T05:49:53;52.40;;;29.33;;
12780;SDS011;6454;43.304;24.344;2022-11-20T05:52:20;49.60;;;30.23;;
12780;SDS011;6454;43.304;24.344;2022-11-20T05:54:47;52.28;;;29.77;;
12780;SDS011;6454;43.304;24.344;2022-11-20T05:57:14;48.10;;;30.38;;
12780;SDS011;6454;43.304;24.344;2022-11-20T05:59:41;48.47;;;29.30;;
12780;SDS011;6454;43.304;24.344;2022-11-20T06:02:08;44.22;;;28.25;;
12780;SDS011;6454;43.304;24.344;2022-11-20T06:04:35;42.22;;;26.17;;
12780;SDS011;6454;43.304;24.344;2022-11-20T06:07:04;48.20;;;27.83;;
12780;SDS011;6454;43.304;24.344;2022-11-20T06:09:31;48.20;;;26.60;;
12780;SDS011;6454;43.304;24.344;2022-11-20T06:11:58;45.38;;;27.30;;
12780;SDS011;6454;43.304;24.344;2022-11-20T06:14:25;43.60;;;27.88;;
12780;SDS011;6454;43.304;24.344;2022-11-20T06:16:51;38.72;;;25.05;;
12780;SDS011;6454;43.304;24.344;2022-11-20T06:19:18;41.65;;;25.67;;
12780;SDS011;6454;43.304;24.344;2022-11-20T06:21:47;41.35;;;26.30;;
12780;SDS011;6454;43.304;24.344;2022-11-20T06:24:16;43.20;;;26.08;;
12780;SDS011;6454;43.304;24.344;2022-11-20T06:26:43;42.42;;;25.02;;
12780;SDS011;6454;43.304;24.344;2022-11-20T06:29:10;43.05;;;26.30;;
12780;SDS011;6454;43.304;24.344;2022-11-20T06:31:36;40.22;;;26.80;;
12780;SDS011;6454;43.304;24.344;2022-11-20T06:34:04;38.72;;;26.35;;
12780;SDS011;6454;43.304;24.344;2022-11-20T06:36:31;43.30;;;26.75;;
12780;SDS011;6454;43.304;24.344;2022-11-20T06:38:58;39.75;;;24.98;;
12780;SDS011;6454;43.304;24.344;2022-11-20T06:41:27;41.30;;;26.77;;
12780;SDS011;6454;43.304;24.344;2022-11-20T06:43:54;38.25;;;25.23;;
12780;SDS011;6454;43.304;24.344;2022-11-20T06:46:21;41.85;;;24.98;;
12780;SDS011;6454;43.304;24.344;2022-11-20T06:48:48;38.03;;;24.42;;
12780;SDS011;6454;43.304;24.344;2022-11-20T06:51:15;37.80;;;25.63;;
12780;SDS011;6454;43.304;24.344;2022-11-20T06:53:42;38.55;;;25.02;;
12780;SDS011;6454;43.304;24.344;2022-11-20T06:56:09;39.53;;;24.70;;
12780;SDS011;6454;43.304;24.344;2022-11-20T06:58:37;36.05;;;24.60;;
12780;SDS011;6454;43.304;24.344;2022-11-20T07:01:05;35.70;;;23.40;;
12780;SDS011;6454;43.304;24.344;2022-11-20T07:03:33;33.63;;;22.80;;
12780;SDS011;6454;43.304;24.344;2022-11-20T07:06:00;36.17;;;24.55;;
12780;SDS011;6454;43.304;24.344;2022-11-20T07:08:27;37.75;;;23.08;;
12780;SDS011;6454;43.304;24.344;2022-11-20T07:10:56;40.00;;;24.52;;
12780;SDS011;6454;43.304;24.344;2022-11-20T07:13:24;36.60;;;23.98;;
12780;SDS011;6454;43.304;24.344;2022-11-20T07:15:53;35.20;;;22.52;;
12780;SDS011;6454;43.304;24.344;2022-11-20T07:18:19;32.78;;;23.13;;
12780;SDS011;6454;43.304;24.344;2022-11-20T07:20:46;32.45;;;22.92;;
12780;SDS011;6454;43.304;24.344;2022-11-20T07:23:13;33.38;;;22.67;;
12780;SDS011;6454;43.304;24.344;2022-11-20T07:25:40;32.00;;;22.23;;
12780;SDS011;6454;43.304;24.344;2022-11-20T07:28:07;30.48;;;20.50;;
12780;SDS011;6454;43.304;24.344;2022-11-20T07:30:35;32.67;;;20.90;;
12780;SDS011;6454;43.304;24.344;2022-11-20T07:33:04;31.63;;;20.80;;
12780;SDS011;6454;43.304;24.344;2022-11-20T07:35:31;29.13;;;20.40;;
12780;SDS011;6454;43.304;24.344;2022-11-20T07:37:58;30.90;;;21.33;;
12780;SDS011;6454;43.304;24.344;2022-11-20T07:40:25;30.58;;;20.13;;
12780;SDS011;6454;43.304;24.344;2022-11-20T07:42:52;29.02;;;20.23;;
12780;SDS011;6454;43.304;24.344;2022-11-20T07:45:20;28.83;;;20.08;;
12780;SDS011;6454;43.304;24.344;2022-11-20T07:47:48;29.70;;;20.45;;
12780;SDS011;6454;43.304;24.344;2022-11-20T07:50:17;29.40;;;19.92;;
12780;SDS011;6454;43.304;24.344;2022-11-20T07:52:45;29.60;;;20.13;;
12780;SDS011;6454;43.304;24.344;2022-11-20T07:55:12;29.92;;;20.73;;
12780;SDS011;6454;43.304;24.344;2022-11-20T07:57:39;29.60;;;20.60;;
12780;SDS011;6454;43.304;24.344;2022-11-20T08:00:07;32.22;;;21.63;;
12780;SDS011;6454;43.304;24.344;2022-11-20T08:02:36;29.73;;;20.05;;
12780;SDS011;6454;43.304;24.344;2022-11-20T08:05:04;29.20;;;19.63;;
12780;SDS011;6454;43.304;24.344;2022-11-20T08:07:36;28.92;;;19.50;;
12780;SDS011;6454;43.304;24.344;2022-11-20T08:10:04;29.30;;;19.70;;
12780;SDS011;6454;43.304;24.344;2022-11-20T08:12:31;30.88;;;20.40;;
12780;SDS011;6454;43.304;24.344;2022-11-20T08:15:16;28.52;;;18.95;;
12780;SDS011;6454;43.304;24.344;2022-11-20T08:17:42;27.15;;;18.65;;
12780;SDS011;6454;43.304;24.344;2022-11-20T08:20:09;28.20;;;19.05;;
12780;SDS011;6454;43.304;24.344;2022-11-20T08:22:38;25.73;;;17.63;;
12780;SDS011;6454;43.304;24.344;2022-11-20T08:25:05;24.90;;;17.55;;
12780;SDS011;6454;43.304;24.344;2022-11-20T08:27:32;28.73;;;18.90;;
12780;SDS011;6454;43.304;24.344;2022-11-20T08:29:59;24.55;;;17.33;;
12780;SDS011;6454;43.304;24.344;2022-11-20T08:32:26;23.48;;;16.50;;
12780;SDS011;6454;43.304;24.344;2022-11-20T08:34:53;23.83;;;17.50;;
12780;SDS011;6454;43.304;24.344;2022-11-20T08:37:20;21.98;;;17.17;;
12780;SDS011;6454;43.304;24.344;2022-11-20T08:39:48;25.38;;;17.58;;
12780;SDS011;6454;43.304;24.344;2022-11-20T08:42:15;24.90;;;17.80;;
12780;SDS011;6454;43.304;24.344;2022-11-20T08:44:41;25.17;;;17.98;;
12780;SDS011;6454;43.304;24.344;2022-11-20T08:47:08;24.17;;;17.75;;
12780;SDS011;6454;43.304;24.344;2022-11-20T08:49:35;25.05;;;18.38;;
12780;SDS011;6454;43.304;24.344;2022-11-20T08:52:02;22.27;;;16.08;;
12780;SDS011;6454;43.304;24.344;2022-11-20T08:54:29;20.25;;;16.23;;
12780;SDS011;6454;43.304;24.344;2022-11-20T08:56:57;20.45;;;15.60;;
12780;SDS011;6454;43.304;24.344;2022-11-20T08:59:24;22.35;;;16.08;;
12780;SDS011;6454;43.304;24.344;2022-11-20T09:01:51;18.42;;;15.57;;
12780;SDS011;6454;43.304;24.344;2022-11-20T09:04:17;22.05;;;16.23;;
12780;SDS011;6454;43.304;24.344;2022-11-20T09:06:44;20.38;;;15.05;;
12780;SDS011;6454;43.304;24.344;2022-11-20T09:09:15;18.40;;;14.55;;
12780;SDS011;6454;43.304;24.344;2022-11-20T09:11:42;18.27;;;14.27;;
12780;SDS011;6454;43.304;24.344;2022-11-20T09:14:11;16.20;;;13.93;;
12780;SDS011;6454;43.304;24.344;2022-11-20T09:16:37;16.30;;;14.02;;
12780;SDS011;6454;43.304;24.344;2022-11-20T09:19:04;16.45;;;14.45;;
12780;SDS011;6454;43.304;24.344;2022-11-20T09:21:31;18.00;;;14.55;;
12780;SDS011;6454;43.304;24.344;2022-11-20T09:23:58;17.33;;;13.35;;
12780;SDS011;6454;43.304;24.344;2022-11-20T09:26:25;17.50;;;13.68;;
12780;SDS011;6454;43.304;24.344;2022-11-20T09:28:51;16.48;;;13.45;;
12780;SDS011;6454;43.304;24.344;2022-11-20T09:31:21;17.73;;;13.30;;
12780;SDS011;6454;43.304;24.344;2022-11-20T09:33:49;15.18;;;12.68;;
12780;SDS011;6454;43.304;24.344;2022-11-20T09:36:16;16.98;;;12.93;;
12780;SDS011;6454;43.304;24.344;2022-11-20T09:38:44;14.38;;;12.10;;
12780;SDS011;6454;43.304;24.344;2022-11-20T09:41:17;15.98;;;12.73;;
12780;SDS011;6454;43.304;24.344;2022-11-20T09:43:57;15.40;;;12.63;;
12780;SDS011;6454;43.304;24.344;2022-11-20T09:46:34;13.98;;;12.20;;
12780;SDS011;6454;43.304;24.344;2022-11-20T09:49:13;27.33;;;12.82;;
12780;SDS011;6454;43.304;24.344;2022-11-20T09:51:51;13.23;;;11.20;;
12780;SDS011;6454;43.304;24.344;2022-11-20T09:54:25;14.65;;;11.88;;
12780;SDS011;6454;43.304;24.344;2022-11-20T09:56:58;13.93;;;12.02;;
12780;SDS011;6454;43.304;24.344;2022-11-20T09:59:34;13.05;;;11.32;;
12780;SDS011;6454;43.304;24.344;2022-11-20T10:02:15;11.68;;;10.48;;
12780;SDS011;6454;43.304;24.344;2022-11-20T10:04:47;13.63;;;11.02;;
12780;SDS011;6454;43.304;24.344;2022-11-20T10:07:20;11.68;;;10.48;;
12780;SDS011;6454;43.304;24.344;2022-11-20T10:09:53;12.05;;;9.70;;
12780;SDS011;6454;43.304;24.344;2022-11-20T10:12:23;12.98;;;9.98;;
12780;SDS011;6454;43.304;24.344;2022-11-20T10:15:11;11.35;;;9.80;;
12780;SDS011;6454;43.304;24.344;2022-11-20T10:20:35;10.25;;;8.93;;
12780;SDS011;6454;43.304;24.344;2022-11-20T10:23:18;10.18;;;9.00;;
12780;SDS011;6454;43.304;24.344;2022-11-20T10:26:11;13.18;;;9.70;;
12780;SDS011;6454;43.304;24.344;2022-11-20T10:28:46;12.95;;;9.07;;
12780;SDS011;6454;43.304;24.344;2022-11-20T10:31:26;13.73;;;10.48;;
12780;SDS011;6454;43.304;24.344;2022-11-20T10:33:58;14.30;;;10.70;;
12780;SDS011;6454;43.304;24.344;2022-11-20T10:36:33;12.88;;;10.63;;
12780;SDS011;6454;43.304;24.344;2022-11-20T10:39:05;15.05;;;10.85;;
12780;SDS011;6454;43.304;24.344;2022-11-20T10:41:41;15.68;;;10.25;;
12780;SDS011;6454;43.304;24.344;2022-11-20T10:44:10;11.98;;;10.55;;
12780;SDS011;6454;43.304;24.344;2022-11-20T10:47:01;15.32;;;11.68;;
12780;SDS011;6454;43.304;24.344;2022-11-20T10:49:31;15.15;;;11.95;;
12780;SDS011;6454;43.304;24.344;2022-11-20T10:52:02;17.92;;;13.63;;
12780;SDS011;6454;43.304;24.344;2022-11-20T10:54:38;24.30;;;16.75;;
12780;SDS011;6454;43.304;24.344;2022-11-20T10:57:15;26.88;;;19.08;;
12780;SDS011;6454;43.304;24.344;2022-11-20T11:00:01;30.67;;;24.33;;
12780;SDS011;6454;43.304;24.344;2022-11-20T11:02:32;30.50;;;22.27;;
12780;SDS011;6454;43.304;24.344;2022-11-20T11:05:07;26.40;;;19.90;;
12780;SDS011;6454;43.304;24.344;2022-11-20T11:07:40;18.70;;;15.18;;
12780;SDS011;6454;43.304;24.344;2022-11-20T11:10:13;19.52;;;14.50;;
12780;SDS011;6454;43.304;24.344;2022-11-20T11:12:43;20.77;;;14.55;;
12780;SDS011;6454;43.304;24.344;2022-11-20T11:15:12;14.77;;;13.02;;
12780;SDS011;6454;43.304;24.344;2022-11-20T11:17:46;17.70;;;15.02;;
12780;SDS011;6454;43.304;24.344;2022-11-20T11:20:16;23.30;;;17.27;;
12780;SDS011;6454;43.304;24.344;2022-11-20T11:22:45;19.85;;;17.50;;
12780;SDS011;6454;43.304;24.344;2022-11-20T11:25:20;19.98;;;16.77;;
12780;SDS011;6454;43.304;24.344;2022-11-20T11:27:49;18.23;;;14.65;;
12780;SDS011;6454;43.304;24.344;2022-11-20T11:30:18;15.40;;;13.10;;
12780;SDS011;6454;43.304;24.344;2022-11-20T11:32:46;17.35;;;14.55;;
12780;SDS011;6454;43.304;24.344;2022-11-20T11:35:22;18.92;;;16.00;;
12780;SDS011;6454;43.304;24.344;2022-11-20T11:37:51;18.35;;;15.65;;
12780;SDS011;6454;43.304;24.344;2022-11-20T11:40:20;14.10;;;12.40;;
12780;SDS011;6454;43.304;24.344;2022-11-20T11:42:50;15.27;;;11.10;;
12780;SDS011;6454;43.304;24.344;2022-11-20T11:45:20;12.77;;;11.38;;
12780;SDS011;6454;43.304;24.344;2022-11-20T11:47:47;12.98;;;11.60;;
12780;SDS011;6454;43.304;24.344;2022-11-20T11:50:16;15.32;;;12.90;;
12780;SDS011;6454;43.304;24.344;2022-11-20T11:52:48;15.35;;;13.75;;
12780;SDS011;6454;43.304;24.344;2022-11-20T11:55:25;15.35;;;12.85;;
12780;SDS011;6454;43.304;24.344;2022-11-20T11:57:59;12.63;;;11.32;;
12780;SDS011;6454;43.304;24.344;2022-11-20T12:00:34;18.63;;;12.23;;
12780;SDS011;6454;43.304;24.344;2022-11-20T12:03:05;14.00;;;12.30;;
12780;SDS011;6454;43.304;24.344;2022-11-20T12:05:43;16.10;;;12.18;;
12780;SDS011;6454;43.304;24.344;2022-11-20T12:08:15;13.45;;;11.10;;
12780;SDS011;6454;43.304;24.344;2022-11-20T12:10:48;14.52;;;11.38;;
12780;SDS011;6454;43.304;24.344;2022-11-20T12:13:26;16.45;;;10.27;;
12780;SDS011;6454;43.304;24.344;2022-11-20T12:16:03;12.45;;;11.07;;
12780;SDS011;6454;43.304;24.344;2022-11-20T12:18:31;11.60;;;10.25;;
12780;SDS011;6454;43.304;24.344;2022-11-20T12:21:02;11.93;;;10.63;;
12780;SDS011;6454;43.304;24.344;2022-11-20T12:23:43;12.07;;;10.50;;
12780;SDS011;6454;43.304;24.344;2022-11-20T12:26:19;14.48;;;10.63;;
12780;SDS011;6454;43.304;24.344;2022-11-20T12:28:58;12.93;;;10.95;;
12780;SDS011;6454;43.304;24.344;2022-11-20T12:31:36;14.40;;;10.98;;
12780;SDS011;6454;43.304;24.344;2022-11-20T12:34:24;14.15;;;11.02;;
12780;SDS011;6454;43.304;24.344;2022-11-20T12:37:10;15.93;;;11.60;;
12780;SDS011;6454;43.304;24.344;2022-11-20T12:39:55;13.48;;;10.10;;
12780;SDS011;6454;43.304;24.344;2022-11-20T12:42:31;12.65;;;9.93;;
12780;SDS011;6454;43.304;24.344;2022-11-20T12:45:28;10.98;;;8.98;;
12780;SDS011;6454;43.304;24.344;2022-11-20T12:48:35;9.85;;;7.30;;
12780;SDS011;6454;43.304;24.344;2022-11-20T12:51:09;8.05;;;6.68;;
12780;SDS011;6454;43.304;24.344;2022-11-20T12:54:00;7.32;;;5.35;;
12780;SDS011;6454;43.304;24.344;2022-11-20T12:56:43;7.90;;;7.10;;
12780;SDS011;6454;43.304;24.344;2022-11-20T12:59:20;6.97;;;5.88;;
12780;SDS011;6454;43.304;24.344;2022-11-20T13:02:01;10.93;;;7.22;;
12780;SDS011;6454;43.304;24.344;2022-11-20T13:07:44;16.80;;;14.30;;
12780;SDS011;6454;43.304;24.344;2022-11-20T13:10:13;12.50;;;10.95;;
12780;SDS011;6454;43.304;24.344;2022-11-20T13:12:49;11.68;;;10.38;;
12780;SDS011;6454;43.304;24.344;2022-11-20T13:15:23;12.77;;;11.13;;
12780;SDS011;6454;43.304;24.344;2022-11-20T13:18:00;13.30;;;10.38;;
12780;SDS011;6454;43.304;24.344;2022-11-20T13:20:30;11.43;;;10.07;;
12780;SDS011;6454;43.304;24.344;2022-11-20T13:23:00;13.40;;;10.80;;
12780;SDS011;6454;43.304;24.344;2022-11-20T13:25:27;14.60;;;11.63;;
12780;SDS011;6454;43.304;24.344;2022-11-20T13:27:57;13.77;;;12.30;;
12780;SDS011;6454;43.304;24.344;2022-11-20T13:30:25;15.70;;;11.02;;
12780;SDS011;6454;43.304;24.344;2022-11-20T13:32:54;14.38;;;12.45;;
12780;SDS011;6454;43.304;24.344;2022-11-20T13:35:26;15.75;;;12.35;;
12780;SDS011;6454;43.304;24.344;2022-11-20T13:38:02;13.05;;;11.73;;
12780;SDS011;6454;43.304;24.344;2022-11-20T13:40:31;14.30;;;12.77;;
12780;SDS011;6454;43.304;24.344;2022-11-20T13:43:07;19.77;;;16.23;;
12780;SDS011;6454;43.304;24.344;2022-11-20T13:45:42;22.88;;;18.30;;
12780;SDS011;6454;43.304;24.344;2022-11-20T13:48:18;24.75;;;20.38;;
12780;SDS011;6454;43.304;24.344;2022-11-20T13:50:50;22.08;;;18.83;;
12780;SDS011;6454;43.304;24.344;2022-11-20T13:53:28;23.38;;;18.85;;
12780;SDS011;6454;43.304;24.344;2022-11-20T13:56:06;19.45;;;17.20;;
12780;SDS011;6454;43.304;24.344;2022-11-20T13:58:47;25.10;;;20.63;;
12780;SDS011;6454;43.304;24.344;2022-11-20T14:01:23;34.50;;;26.77;;
12780;SDS011;6454;43.304;24.344;2022-11-20T14:03:52;37.42;;;28.23;;
12780;SDS011;6454;43.304;24.344;2022-11-20T14:06:23;43.33;;;33.80;;
12780;SDS011;6454;43.304;24.344;2022-11-20T14:08:53;29.52;;;24.67;;
12780;SDS011;6454;43.304;24.344;2022-11-20T14:11:22;21.98;;;17.33;;
12780;SDS011;6454;43.304;24.344;2022-11-20T14:13:59;17.65;;;12.90;;
12780;SDS011;6454;43.304;24.344;2022-11-20T14:16:28;14.00;;;11.70;;
12780;SDS011;6454;43.304;24.344;2022-11-20T14:18:57;14.07;;;12.32;;
12780;SDS011;6454;43.304;24.344;2022-11-20T14:21:43;17.35;;;13.52;;
12780;SDS011;6454;43.304;24.344;2022-11-20T14:24:10;18.40;;;15.90;;
12780;SDS011;6454;43.304;24.344;2022-11-20T14:26:40;21.67;;;15.18;;
12780;SDS011;6454;43.304;24.344;2022-11-20T14:29:12;16.17;;;14.07;;
12780;SDS011;6454;43.304;24.344;2022-11-20T14:31:40;17.67;;;14.48;;
12780;SDS011;6454;43.304;24.344;2022-11-20T14:34:10;19.10;;;14.65;;
12780;SDS011;6454;43.304;24.344;2022-11-20T14:36:42;18.00;;;15.35;;
12780;SDS011;6454;43.304;24.344;2022-11-20T14:39:10;18.88;;;15.68;;
12780;SDS011;6454;43.304;24.344;2022-11-20T14:41:38;21.33;;;16.98;;
12780;SDS011;6454;43.304;24.344;2022-11-20T14:44:05;22.10;;;17.80;;
12780;SDS011;6454;43.304;24.344;2022-11-20T14:46:36;24.42;;;16.92;;